Griffiss International Airport
KRME : now visible

Airfield :











YOU CAN JOIN US ON...

 
LOGIN :

Register | Disclaimer

   EN    FR    IT 

 









Legend :    VFR   Marginal VFR   IFR   Intensive IFR   Very Intensive IFR
Visi :
Ceiling :
>= 8 km
>= 3000ft
5 to 8 km
1000 to 3000 ft
1500m to 5 km
500 to 1000 ft
800 to 1500m
200 to 500 ft
< 800m
< 200 ft
Symbols :   Thunderstorms  Fog  Heavy snow  Heavy precipitations  Wind > 20 kt






- Airport Elevation : 504 ft


KRME - Griffiss International

CURRENT METAR :
  • 291253Z 27009KT 10SM FEW047 SCT065 M09/M13 A2984 RMK AO2 SLP110 T10891133

EXPIRED METARs :
  • 291153Z 29012KT 10SM BKN060 M08/M13 A2981 RMK AO2 SNE27 SLP102 P0000 60000 T10831128 11044 21089 51023
  • 291139Z AUTO 29010KT 10SM SCT029 OVC065 M08/M12 A2981 RMK AO2 SNE27 P0000 T10831122
  • 291115Z AUTO 29008KT 4SM -SN BKN028 OVC055 M08/M11 A2980 RMK AO2 P0000 T10831111
  • 291040Z AUTO 28008KT 10SM FEW021 BKN030 M08/M12 A2979 RMK AO2 SNB0954E16 P0000 T10781117
  • 291031Z AUTO 30010KT 10SM FEW018 SCT023 BKN028 M08/M12 A2978 RMK AO2 SNB0954E16 P0000 T10781117

TAF KRME
Valid from the 29 at 12:00 until the 01 at 12:00 UTC


291138Z 2912/0112 30007KT 4SM -SN BKN025
FM291600 28010G16KT P6SM BKN025
FM010000 28007KT P6SM OVC025



MET'MAP, your aeronautical weather chart ! - Copyright ORBIFLY December 2007 - Disclaimer

ORBIFLY MET'MAP TEAM :

Programming & Development : Alexandra Zaïnal
Concept & original design : Baudouin d'Aumeries
Assistance for programming : Marc-Olivier Méhu
Technical & hardware support : Manuel Goepfert

Contact : metmap@orbifly.com




SOURCES & CREDITS :

   NOAA       Earth
Advisory